sensor_id;sensor_type;location;lat;lon;timestamp;P1;durP1;ratioP1;P2;durP2;ratioP2
16824;SDS011;8529;48.108;-1.706;2022-07-01T00:00:27;2.83;;;1.08;;
16824;SDS011;8529;48.108;-1.706;2022-07-01T00:02:54;5.18;;;1.88;;
16824;SDS011;8529;48.108;-1.706;2022-07-01T00:05:21;2.13;;;0.95;;
16824;SDS011;8529;48.108;-1.706;2022-07-01T00:07:48;2.03;;;1.10;;
16824;SDS011;8529;48.108;-1.706;2022-07-01T00:10:15;1.92;;;1.20;;
16824;SDS011;8529;48.108;-1.706;2022-07-01T00:12:43;2.08;;;1.17;;
16824;SDS011;8529;48.108;-1.706;2022-07-01T00:15:11;3.80;;;1.27;;
16824;SDS011;8529;48.108;-1.706;2022-07-01T00:17:39;2.30;;;1.10;;
16824;SDS011;8529;48.108;-1.706;2022-07-01T00:20:06;3.28;;;1.38;;
16824;SDS011;8529;48.108;-1.706;2022-07-01T00:22:34;2.03;;;1.40;;
16824;SDS011;8529;48.108;-1.706;2022-07-01T00:25:00;1.85;;;1.17;;
16824;SDS011;8529;48.108;-1.706;2022-07-01T00:27:28;1.60;;;1.10;;
16824;SDS011;8529;48.108;-1.706;2022-07-01T00:29:56;1.80;;;1.17;;
16824;SDS011;8529;48.108;-1.706;2022-07-01T00:32:23;4.43;;;1.73;;
16824;SDS011;8529;48.108;-1.706;2022-07-01T00:34:50;2.45;;;1.30;;
16824;SDS011;8529;48.108;-1.706;2022-07-01T00:37:17;3.70;;;1.50;;
16824;SDS011;8529;48.108;-1.706;2022-07-01T00:39:44;2.08;;;1.13;;
16824;SDS011;8529;48.108;-1.706;2022-07-01T00:42:11;2.92;;;1.30;;
16824;SDS011;8529;48.108;-1.706;2022-07-01T00:44:38;3.25;;;1.50;;
16824;SDS011;8529;48.108;-1.706;2022-07-01T00:47:08;3.67;;;1.30;;
16824;SDS011;8529;48.108;-1.706;2022-07-01T00:49:37;3.35;;;1.10;;
16824;SDS011;8529;48.108;-1.706;2022-07-01T00:52:04;1.55;;;1.45;;
16824;SDS011;8529;48.108;-1.706;2022-07-01T00:54:35;1.48;;;1.02;;
16824;SDS011;8529;48.108;-1.706;2022-07-01T00:57:05;2.92;;;1.40;;
16824;SDS011;8529;48.108;-1.706;2022-07-01T00:59:33;6.57;;;1.60;;
16824;SDS011;8529;48.108;-1.706;2022-07-01T01:02:01;1.83;;;1.20;;
16824;SDS011;8529;48.108;-1.706;2022-07-01T01:04:29;2.10;;;1.35;;
16824;SDS011;8529;48.108;-1.706;2022-07-01T01:06:57;3.70;;;1.40;;
16824;SDS011;8529;48.108;-1.706;2022-07-01T01:09:26;1.88;;;1.40;;
16824;SDS011;8529;48.108;-1.706;2022-07-01T01:11:54;2.75;;;1.35;;
16824;SDS011;8529;48.108;-1.706;2022-07-01T01:14:23;3.80;;;1.40;;
16824;SDS011;8529;48.108;-1.706;2022-07-01T01:16:50;1.63;;;1.05;;
16824;SDS011;8529;48.108;-1.706;2022-07-01T01:19:16;1.88;;;1.23;;
16824;SDS011;8529;48.108;-1.706;2022-07-01T01:21:45;2.08;;;1.13;;
16824;SDS011;8529;48.108;-1.706;2022-07-01T01:24:12;3.42;;;1.60;;
16824;SDS011;8529;48.108;-1.706;2022-07-01T01:26:39;4.43;;;1.60;;
16824;SDS011;8529;48.108;-1.706;2022-07-01T01:29:06;2.42;;;1.45;;
16824;SDS011;8529;48.108;-1.706;2022-07-01T01:31:33;2.75;;;1.17;;
16824;SDS011;8529;48.108;-1.706;2022-07-01T01:34:01;3.20;;;1.15;;
16824;SDS011;8529;48.108;-1.706;2022-07-01T01:36:28;4.38;;;1.20;;
16824;SDS011;8529;48.108;-1.706;2022-07-01T01:38:56;2.85;;;1.40;;
16824;SDS011;8529;48.108;-1.706;2022-07-01T01:41:25;1.58;;;1.13;;
16824;SDS011;8529;48.108;-1.706;2022-07-01T01:43:52;1.88;;;1.38;;
16824;SDS011;8529;48.108;-1.706;2022-07-01T01:46:19;1.92;;;1.30;;
16824;SDS011;8529;48.108;-1.706;2022-07-01T01:48:46;3.83;;;1.75;;
16824;SDS011;8529;48.108;-1.706;2022-07-01T01:51:13;2.15;;;1.38;;
16824;SDS011;8529;48.108;-1.706;2022-07-01T01:53:40;2.67;;;1.77;;
16824;SDS011;8529;48.108;-1.706;2022-07-01T01:56:08;3.63;;;1.58;;
16824;SDS011;8529;48.108;-1.706;2022-07-01T01:58:35;1.63;;;1.38;;
16824;SDS011;8529;48.108;-1.706;2022-07-01T02:01:07;1.80;;;1.20;;
16824;SDS011;8529;48.108;-1.706;2022-07-01T02:03:34;2.47;;;1.35;;
16824;SDS011;8529;48.108;-1.706;2022-07-01T02:06:01;2.33;;;1.40;;
16824;SDS011;8529;48.108;-1.706;2022-07-01T02:08:28;3.90;;;1.80;;
16824;SDS011;8529;48.108;-1.706;2022-07-01T02:10:56;4.03;;;1.45;;
16824;SDS011;8529;48.108;-1.706;2022-07-01T02:13:25;4.15;;;1.70;;
16824;SDS011;8529;48.108;-1.706;2022-07-01T02:15:52;1.90;;;1.58;;
16824;SDS011;8529;48.108;-1.706;2022-07-01T02:18:19;1.85;;;1.10;;
16824;SDS011;8529;48.108;-1.706;2022-07-01T02:20:45;1.90;;;1.25;;
16824;SDS011;8529;48.108;-1.706;2022-07-01T02:23:12;3.28;;;1.67;;
16824;SDS011;8529;48.108;-1.706;2022-07-01T02:25:39;1.92;;;1.70;;
16824;SDS011;8529;48.108;-1.706;2022-07-01T02:28:06;3.10;;;1.35;;
16824;SDS011;8529;48.108;-1.706;2022-07-01T02:30:35;1.83;;;1.40;;
16824;SDS011;8529;48.108;-1.706;2022-07-01T02:33:03;2.47;;;1.40;;
16824;SDS011;8529;48.108;-1.706;2022-07-01T02:35:30;1.38;;;1.20;;
16824;SDS011;8529;48.108;-1.706;2022-07-01T02:37:57;2.05;;;1.30;;
16824;SDS011;8529;48.108;-1.706;2022-07-01T02:40:25;1.45;;;1.33;;
16824;SDS011;8529;48.108;-1.706;2022-07-01T02:42:52;3.67;;;1.20;;
16824;SDS011;8529;48.108;-1.706;2022-07-01T02:45:18;2.17;;;1.27;;
16824;SDS011;8529;48.108;-1.706;2022-07-01T02:47:47;2.15;;;1.40;;
16824;SDS011;8529;48.108;-1.706;2022-07-01T02:50:14;2.58;;;1.60;;
16824;SDS011;8529;48.108;-1.706;2022-07-01T02:52:41;1.90;;;1.38;;
16824;SDS011;8529;48.108;-1.706;2022-07-01T02:55:09;2.47;;;1.23;;
16824;SDS011;8529;48.108;-1.706;2022-07-01T02:57:38;5.53;;;1.45;;
16824;SDS011;8529;48.108;-1.706;2022-07-01T03:00:06;2.85;;;1.58;;
16824;SDS011;8529;48.108;-1.706;2022-07-01T03:02:34;1.58;;;1.33;;
16824;SDS011;8529;48.108;-1.706;2022-07-01T03:05:02;3.25;;;1.50;;
16824;SDS011;8529;48.108;-1.706;2022-07-01T03:07:30;3.38;;;1.40;;
16824;SDS011;8529;48.108;-1.706;2022-07-01T03:09:57;2.08;;;1.15;;
16824;SDS011;8529;48.108;-1.706;2022-07-01T03:12:24;1.65;;;1.38;;
16824;SDS011;8529;48.108;-1.706;2022-07-01T03:14:52;2.92;;;1.38;;
16824;SDS011;8529;48.108;-1.706;2022-07-01T03:17:20;3.30;;;1.70;;
16824;SDS011;8529;48.108;-1.706;2022-07-01T03:19:47;4.22;;;2.00;;
16824;SDS011;8529;48.108;-1.706;2022-07-01T03:22:15;1.67;;;1.35;;
16824;SDS011;8529;48.108;-1.706;2022-07-01T03:24:42;3.22;;;1.65;;
16824;SDS011;8529;48.108;-1.706;2022-07-01T03:27:09;5.50;;;1.60;;
16824;SDS011;8529;48.108;-1.706;2022-07-01T03:29:36;2.17;;;1.75;;
16824;SDS011;8529;48.108;-1.706;2022-07-01T03:32:03;2.45;;;1.60;;
16824;SDS011;8529;48.108;-1.706;2022-07-01T03:34:30;3.88;;;1.77;;
16824;SDS011;8529;48.108;-1.706;2022-07-01T03:36:57;2.00;;;1.60;;
16824;SDS011;8529;48.108;-1.706;2022-07-01T03:39:26;2.58;;;1.30;;
16824;SDS011;8529;48.108;-1.706;2022-07-01T03:41:53;2.88;;;1.77;;
16824;SDS011;8529;48.108;-1.706;2022-07-01T03:44:20;2.42;;;1.20;;
16824;SDS011;8529;48.108;-1.706;2022-07-01T03:46:46;4.20;;;2.00;;
16824;SDS011;8529;48.108;-1.706;2022-07-01T03:49:13;6.20;;;1.80;;
16824;SDS011;8529;48.108;-1.706;2022-07-01T03:51:40;3.58;;;2.13;;
16824;SDS011;8529;48.108;-1.706;2022-07-01T03:54:07;4.25;;;1.80;;
16824;SDS011;8529;48.108;-1.706;2022-07-01T03:56:53;5.85;;;2.35;;
16824;SDS011;8529;48.108;-1.706;2022-07-01T03:59:20;5.10;;;2.40;;
16824;SDS011;8529;48.108;-1.706;2022-07-01T04:01:46;4.28;;;2.03;;
16824;SDS011;8529;48.108;-1.706;2022-07-01T04:04:13;4.47;;;2.00;;
16824;SDS011;8529;48.108;-1.706;2022-07-01T04:06:40;5.05;;;2.72;;
16824;SDS011;8529;48.108;-1.706;2022-07-01T04:09:08;4.60;;;2.00;;
16824;SDS011;8529;48.108;-1.706;2022-07-01T04:11:36;5.88;;;2.78;;
16824;SDS011;8529;48.108;-1.706;2022-07-01T04:14:05;5.25;;;2.13;;
16824;SDS011;8529;48.108;-1.706;2022-07-01T04:16:32;8.70;;;2.08;;
16824;SDS011;8529;48.108;-1.706;2022-07-01T04:18:59;3.42;;;2.08;;
16824;SDS011;8529;48.108;-1.706;2022-07-01T04:21:26;3.47;;;1.98;;
16824;SDS011;8529;48.108;-1.706;2022-07-01T04:24:10;3.47;;;2.00;;
16824;SDS011;8529;48.108;-1.706;2022-07-01T04:26:38;3.92;;;2.30;;
16824;SDS011;8529;48.108;-1.706;2022-07-01T04:29:07;6.78;;;2.47;;
16824;SDS011;8529;48.108;-1.706;2022-07-01T04:31:34;7.05;;;2.25;;
16824;SDS011;8529;48.108;-1.706;2022-07-01T04:34:01;5.28;;;2.85;;
16824;SDS011;8529;48.108;-1.706;2022-07-01T04:36:28;10.48;;;2.53;;
16824;SDS011;8529;48.108;-1.706;2022-07-01T04:38:55;10.98;;;2.60;;
16824;SDS011;8529;48.108;-1.706;2022-07-01T04:41:22;8.20;;;2.25;;
16824;SDS011;8529;48.108;-1.706;2022-07-01T04:44:09;5.03;;;2.38;;
16824;SDS011;8529;48.108;-1.706;2022-07-01T04:46:35;7.68;;;2.80;;
16824;SDS011;8529;48.108;-1.706;2022-07-01T04:49:02;4.78;;;2.17;;
16824;SDS011;8529;48.108;-1.706;2022-07-01T04:51:30;6.07;;;2.20;;
16824;SDS011;8529;48.108;-1.706;2022-07-01T04:53:59;6.53;;;2.60;;
16824;SDS011;8529;48.108;-1.706;2022-07-01T04:56:26;5.43;;;2.63;;
16824;SDS011;8529;48.108;-1.706;2022-07-01T04:58:53;5.10;;;2.55;;
16824;SDS011;8529;48.108;-1.706;2022-07-01T05:01:22;2.80;;;2.22;;
16824;SDS011;8529;48.108;-1.706;2022-07-01T05:03:49;12.02;;;2.67;;
16824;SDS011;8529;48.108;-1.706;2022-07-01T05:06:16;3.92;;;2.20;;
16824;SDS011;8529;48.108;-1.706;2022-07-01T05:08:43;4.68;;;2.42;;
16824;SDS011;8529;48.108;-1.706;2022-07-01T05:11:10;7.05;;;2.67;;
16824;SDS011;8529;48.108;-1.706;2022-07-01T05:13:37;4.25;;;2.28;;
16824;SDS011;8529;48.108;-1.706;2022-07-01T05:16:04;4.60;;;2.78;;
16824;SDS011;8529;48.108;-1.706;2022-07-01T05:18:35;4.88;;;2.20;;
16824;SDS011;8529;48.108;-1.706;2022-07-01T05:21:20;4.63;;;2.20;;
16824;SDS011;8529;48.108;-1.706;2022-07-01T05:24:05;3.03;;;1.80;;
16824;SDS011;8529;48.108;-1.706;2022-07-01T05:26:33;3.97;;;2.03;;
16824;SDS011;8529;48.108;-1.706;2022-07-01T05:29:00;3.22;;;1.80;;
16824;SDS011;8529;48.108;-1.706;2022-07-01T05:31:27;3.45;;;1.95;;
16824;SDS011;8529;48.108;-1.706;2022-07-01T05:33:55;4.13;;;2.30;;
16824;SDS011;8529;48.108;-1.706;2022-07-01T05:36:22;3.92;;;2.10;;
16824;SDS011;8529;48.108;-1.706;2022-07-01T05:38:49;3.45;;;2.28;;
16824;SDS011;8529;48.108;-1.706;2022-07-01T05:41:16;5.00;;;2.83;;
16824;SDS011;8529;48.108;-1.706;2022-07-01T05:43:43;2.47;;;1.98;;
16824;SDS011;8529;48.108;-1.706;2022-07-01T05:46:10;4.90;;;2.30;;
16824;SDS011;8529;48.108;-1.706;2022-07-01T05:48:37;4.45;;;2.10;;
16824;SDS011;8529;48.108;-1.706;2022-07-01T05:51:06;3.90;;;2.08;;
16824;SDS011;8529;48.108;-1.706;2022-07-01T05:53:33;2.70;;;2.30;;
16824;SDS011;8529;48.108;-1.706;2022-07-01T05:55:59;3.38;;;2.10;;
16824;SDS011;8529;48.108;-1.706;2022-07-01T05:58:26;1.98;;;1.77;;
16824;SDS011;8529;48.108;-1.706;2022-07-01T06:00:53;12.38;;;2.15;;
16824;SDS011;8529;48.108;-1.706;2022-07-01T06:03:20;3.45;;;1.95;;
16824;SDS011;8529;48.108;-1.706;2022-07-01T06:05:47;4.35;;;2.00;;
16824;SDS011;8529;48.108;-1.706;2022-07-01T06:08:15;4.30;;;1.85;;
16824;SDS011;8529;48.108;-1.706;2022-07-01T06:10:42;8.38;;;2.50;;
16824;SDS011;8529;48.108;-1.706;2022-07-01T06:13:09;2.50;;;1.90;;
16824;SDS011;8529;48.108;-1.706;2022-07-01T06:15:36;4.00;;;2.00;;
16824;SDS011;8529;48.108;-1.706;2022-07-01T06:18:03;4.00;;;2.20;;
16824;SDS011;8529;48.108;-1.706;2022-07-01T06:20:30;4.55;;;2.15;;
16824;SDS011;8529;48.108;-1.706;2022-07-01T06:22:57;2.85;;;1.90;;
16824;SDS011;8529;48.108;-1.706;2022-07-01T06:25:25;3.92;;;1.90;;
16824;SDS011;8529;48.108;-1.706;2022-07-01T06:27:52;5.13;;;2.50;;
16824;SDS011;8529;48.108;-1.706;2022-07-01T06:30:19;3.97;;;2.47;;
16824;SDS011;8529;48.108;-1.706;2022-07-01T06:32:46;4.47;;;2.25;;
16824;SDS011;8529;48.108;-1.706;2022-07-01T06:35:13;4.32;;;2.00;;
16824;SDS011;8529;48.108;-1.706;2022-07-01T06:37:40;3.63;;;2.00;;
16824;SDS011;8529;48.108;-1.706;2022-07-01T06:40:07;5.22;;;1.63;;
16824;SDS011;8529;48.108;-1.706;2022-07-01T06:42:35;2.80;;;2.10;;
16824;SDS011;8529;48.108;-1.706;2022-07-01T06:45:03;7.53;;;2.33;;
16824;SDS011;8529;48.108;-1.706;2022-07-01T06:47:30;3.47;;;2.20;;
16824;SDS011;8529;48.108;-1.706;2022-07-01T06:49:57;5.90;;;1.90;;
16824;SDS011;8529;48.108;-1.706;2022-07-01T06:52:24;3.42;;;1.95;;
16824;SDS011;8529;48.108;-1.706;2022-07-01T06:54:51;5.28;;;1.90;;
16824;SDS011;8529;48.108;-1.706;2022-07-01T06:57:18;3.78;;;1.42;;
16824;SDS011;8529;48.108;-1.706;2022-07-01T06:59:46;3.33;;;1.88;;
16824;SDS011;8529;48.108;-1.706;2022-07-01T07:02:14;2.38;;;1.50;;
16824;SDS011;8529;48.108;-1.706;2022-07-01T07:04:41;4.05;;;1.70;;
16824;SDS011;8529;48.108;-1.706;2022-07-01T07:07:08;4.05;;;1.48;;
16824;SDS011;8529;48.108;-1.706;2022-07-01T07:09:34;3.38;;;1.30;;
16824;SDS011;8529;48.108;-1.706;2022-07-01T07:12:01;3.25;;;1.40;;
16824;SDS011;8529;48.108;-1.706;2022-07-01T07:14:29;5.20;;;1.90;;
16824;SDS011;8529;48.108;-1.706;2022-07-01T07:16:57;3.42;;;1.30;;
16824;SDS011;8529;48.108;-1.706;2022-07-01T07:19:24;1.35;;;0.98;;
16824;SDS011;8529;48.108;-1.706;2022-07-01T07:21:51;4.40;;;1.42;;
16824;SDS011;8529;48.108;-1.706;2022-07-01T07:24:18;1.80;;;1.25;;
16824;SDS011;8529;48.108;-1.706;2022-07-01T07:26:45;3.88;;;1.58;;
16824;SDS011;8529;48.108;-1.706;2022-07-01T07:29:12;1.67;;;1.00;;
16824;SDS011;8529;48.108;-1.706;2022-07-01T07:31:39;5.72;;;1.00;;
16824;SDS011;8529;48.108;-1.706;2022-07-01T07:34:08;2.70;;;1.08;;
16824;SDS011;8529;48.108;-1.706;2022-07-01T07:36:35;2.42;;;0.80;;
16824;SDS011;8529;48.108;-1.706;2022-07-01T07:39:02;2.92;;;1.20;;
16824;SDS011;8529;48.108;-1.706;2022-07-01T07:41:30;3.05;;;1.05;;
16824;SDS011;8529;48.108;-1.706;2022-07-01T07:43:56;4.93;;;1.10;;
16824;SDS011;8529;48.108;-1.706;2022-07-01T07:46:23;3.20;;;1.10;;
16824;SDS011;8529;48.108;-1.706;2022-07-01T07:48:50;2.10;;;1.30;;
16824;SDS011;8529;48.108;-1.706;2022-07-01T07:51:18;9.23;;;1.17;;
16824;SDS011;8529;48.108;-1.706;2022-07-01T07:53:48;2.40;;;1.00;;
16824;SDS011;8529;48.108;-1.706;2022-07-01T07:56:15;3.83;;;0.90;;
16824;SDS011;8529;48.108;-1.706;2022-07-01T07:58:42;2.75;;;1.00;;
16824;SDS011;8529;48.108;-1.706;2022-07-01T08:01:09;1.70;;;0.90;;
16824;SDS011;8529;48.108;-1.706;2022-07-01T08:03:36;3.70;;;1.08;;
16824;SDS011;8529;48.108;-1.706;2022-07-01T08:06:03;3.30;;;1.08;;
16824;SDS011;8529;48.108;-1.706;2022-07-01T08:08:32;2.08;;;1.05;;
16824;SDS011;8529;48.108;-1.706;2022-07-01T08:10:59;1.25;;;0.68;;
16824;SDS011;8529;48.108;-1.706;2022-07-01T08:13:26;1.52;;;0.75;;
16824;SDS011;8529;48.108;-1.706;2022-07-01T08:15:53;5.93;;;1.00;;
16824;SDS011;8529;48.108;-1.706;2022-07-01T08:18:20;1.58;;;1.00;;
16824;SDS011;8529;48.108;-1.706;2022-07-01T08:20:47;3.70;;;1.00;;
16824;SDS011;8529;48.108;-1.706;2022-07-01T08:23:17;3.45;;;0.82;;
16824;SDS011;8529;48.108;-1.706;2022-07-01T08:25:46;2.22;;;1.10;;
16824;SDS011;8529;48.108;-1.706;2022-07-01T08:28:13;1.30;;;0.68;;
16824;SDS011;8529;48.108;-1.706;2022-07-01T08:30:41;1.55;;;0.50;;
16824;SDS011;8529;48.108;-1.706;2022-07-01T08:33:09;4.50;;;0.90;;
16824;SDS011;8529;48.108;-1.706;2022-07-01T08:35:36;1.60;;;0.57;;
16824;SDS011;8529;48.108;-1.706;2022-07-01T08:38:04;2.40;;;0.80;;
16824;SDS011;8529;48.108;-1.706;2022-07-01T08:40:31;2.83;;;0.68;;
16824;SDS011;8529;48.108;-1.706;2022-07-01T08:43:00;0.82;;;0.73;;
16824;SDS011;8529;48.108;-1.706;2022-07-01T08:45:29;1.90;;;0.50;;
16824;SDS011;8529;48.108;-1.706;2022-07-01T08:47:57;9.43;;;1.08;;
16824;SDS011;8529;48.108;-1.706;2022-07-01T08:50:26;3.92;;;0.63;;
16824;SDS011;8529;48.108;-1.706;2022-07-01T08:52:54;1.98;;;0.55;;
16824;SDS011;8529;48.108;-1.706;2022-07-01T08:55:21;1.40;;;0.70;;
16824;SDS011;8529;48.108;-1.706;2022-07-01T08:57:49;2.38;;;0.70;;
16824;SDS011;8529;48.108;-1.706;2022-07-01T09:00:17;1.77;;;0.80;;
16824;SDS011;8529;48.108;-1.706;2022-07-01T09:02:48;1.33;;;0.68;;
16824;SDS011;8529;48.108;-1.706;2022-07-01T09:05:21;1.05;;;0.70;;
16824;SDS011;8529;48.108;-1.706;2022-07-01T09:07:49;2.00;;;0.65;;
16824;SDS011;8529;48.108;-1.706;2022-07-01T09:10:22;3.30;;;0.88;;
16824;SDS011;8529;48.108;-1.706;2022-07-01T09:12:50;2.80;;;0.73;;
16824;SDS011;8529;48.108;-1.706;2022-07-01T09:15:26;1.80;;;0.73;;
16824;SDS011;8529;48.108;-1.706;2022-07-01T09:17:55;2.15;;;0.52;;
16824;SDS011;8529;48.108;-1.706;2022-07-01T09:20:24;0.90;;;0.73;;
16824;SDS011;8529;48.108;-1.706;2022-07-01T09:22:59;3.78;;;1.15;;
16824;SDS011;8529;48.108;-1.706;2022-07-01T09:25:27;1.00;;;0.60;;
16824;SDS011;8529;48.108;-1.706;2022-07-01T09:28:05;2.45;;;1.08;;
16824;SDS011;8529;48.108;-1.706;2022-07-01T09:30:34;2.17;;;0.85;;
16824;SDS011;8529;48.108;-1.706;2022-07-01T09:35:48;1.33;;;0.70;;
16824;SDS011;8529;48.108;-1.706;2022-07-01T09:38:16;1.13;;;0.60;;
16824;SDS011;8529;48.108;-1.706;2022-07-01T09:40:45;2.47;;;0.70;;
16824;SDS011;8529;48.108;-1.706;2022-07-01T09:43:17;1.25;;;0.50;;
16824;SDS011;8529;48.108;-1.706;2022-07-01T09:45:50;3.60;;;1.15;;
16824;SDS011;8529;48.108;-1.706;2022-07-01T09:48:21;1.80;;;0.63;;
16824;SDS011;8529;48.108;-1.706;2022-07-01T09:50:50;3.47;;;0.73;;
16824;SDS011;8529;48.108;-1.706;2022-07-01T09:53:17;3.05;;;1.13;;
16824;SDS011;8529;48.108;-1.706;2022-07-01T09:55:44;4.97;;;0.70;;
16824;SDS011;8529;48.108;-1.706;2022-07-01T09:58:11;1.02;;;0.82;;
16824;SDS011;8529;48.108;-1.706;2022-07-01T10:00:39;1.40;;;0.82;;
16824;SDS011;8529;48.108;-1.706;2022-07-01T10:03:07;3.53;;;0.73;;
16824;SDS011;8529;48.108;-1.706;2022-07-01T10:05:39;3.13;;;1.00;;
16824;SDS011;8529;48.108;-1.706;2022-07-01T10:11:09;1.65;;;0.65;;
16824;SDS011;8529;48.108;-1.706;2022-07-01T10:14:02;2.33;;;0.80;;
16824;SDS011;8529;48.108;-1.706;2022-07-01T10:16:30;1.20;;;0.75;;
16824;SDS011;8529;48.108;-1.706;2022-07-01T10:19:00;4.03;;;0.85;;
16824;SDS011;8529;48.108;-1.706;2022-07-01T10:21:32;0.95;;;0.52;;
16824;SDS011;8529;48.108;-1.706;2022-07-01T10:24:10;2.53;;;0.55;;
16824;SDS011;8529;48.108;-1.706;2022-07-01T10:26:38;0.80;;;0.55;;
16824;SDS011;8529;48.108;-1.706;2022-07-01T10:29:09;0.93;;;0.57;;
16824;SDS011;8529;48.108;-1.706;2022-07-01T10:31:54;0.90;;;0.50;;
16824;SDS011;8529;48.108;-1.706;2022-07-01T10:34:27;1.45;;;0.60;;
16824;SDS011;8529;48.108;-1.706;2022-07-01T10:37:01;2.35;;;0.63;;
16824;SDS011;8529;48.108;-1.706;2022-07-01T10:39:29;0.93;;;0.60;;
16824;SDS011;8529;48.108;-1.706;2022-07-01T10:41:57;2.60;;;0.68;;
16824;SDS011;8529;48.108;-1.706;2022-07-01T10:44:26;1.80;;;0.68;;
16824;SDS011;8529;48.108;-1.706;2022-07-01T10:46:55;0.82;;;0.60;;
16824;SDS011;8529;48.108;-1.706;2022-07-01T10:52:35;2.47;;;0.95;;
16824;SDS011;8529;48.108;-1.706;2022-07-01T10:55:04;1.50;;;0.75;;
16824;SDS011;8529;48.108;-1.706;2022-07-01T10:57:33;3.17;;;0.60;;
16824;SDS011;8529;48.108;-1.706;2022-07-01T11:03:04;6.28;;;1.05;;
16824;SDS011;8529;48.108;-1.706;2022-07-01T11:05:39;0.55;;;0.40;;
16824;SDS011;8529;48.108;-1.706;2022-07-01T11:08:08;2.25;;;0.68;;
16824;SDS011;8529;48.108;-1.706;2022-07-01T11:10:37;2.58;;;0.68;;
16824;SDS011;8529;48.108;-1.706;2022-07-01T11:13:04;0.80;;;0.40;;
16824;SDS011;8529;48.108;-1.706;2022-07-01T11:15:31;3.38;;;0.60;;
16824;SDS011;8529;48.108;-1.706;2022-07-01T11:17:59;1.67;;;0.55;;
16824;SDS011;8529;48.108;-1.706;2022-07-01T11:20:30;1.92;;;0.50;;
16824;SDS011;8529;48.108;-1.706;2022-07-01T11:22:58;1.40;;;0.60;;
16824;SDS011;8529;48.108;-1.706;2022-07-01T11:25:26;0.63;;;0.47;;
16824;SDS011;8529;48.108;-1.706;2022-07-01T11:27:55;0.70;;;0.45;;
16824;SDS011;8529;48.108;-1.706;2022-07-01T11:30:22;1.38;;;0.50;;
16824;SDS011;8529;48.108;-1.706;2022-07-01T11:32:51;1.40;;;0.40;;
16824;SDS011;8529;48.108;-1.706;2022-07-01T11:35:19;0.80;;;0.60;;
16824;SDS011;8529;48.108;-1.706;2022-07-01T11:38:09;1.58;;;0.50;;
16824;SDS011;8529;48.108;-1.706;2022-07-01T11:40:57;1.42;;;0.57;;
16824;SDS011;8529;48.108;-1.706;2022-07-01T11:43:25;1.75;;;0.52;;
16824;SDS011;8529;48.108;-1.706;2022-07-01T11:45:53;0.52;;;0.32;;
16824;SDS011;8529;48.108;-1.706;2022-07-01T11:48:34;2.63;;;0.75;;
16824;SDS011;8529;48.108;-1.706;2022-07-01T11:51:06;2.38;;;0.57;;
16824;SDS011;8529;48.108;-1.706;2022-07-01T11:53:35;1.85;;;0.98;;
16824;SDS011;8529;48.108;-1.706;2022-07-01T11:56:04;2.45;;;0.68;;
16824;SDS011;8529;48.108;-1.706;2022-07-01T11:58:44;2.05;;;0.77;;
16824;SDS011;8529;48.108;-1.706;2022-07-01T12:01:23;0.60;;;0.50;;
16824;SDS011;8529;48.108;-1.706;2022-07-01T12:03:51;1.88;;;0.50;;
16824;SDS011;8529;48.108;-1.706;2022-07-01T12:06:19;1.73;;;0.47;;
16824;SDS011;8529;48.108;-1.706;2022-07-01T12:08:48;1.02;;;0.50;;
16824;SDS011;8529;48.108;-1.706;2022-07-01T12:11:17;0.68;;;0.60;;
16824;SDS011;8529;48.108;-1.706;2022-07-01T12:13:45;2.55;;;0.70;;
16824;SDS011;8529;48.108;-1.706;2022-07-01T12:16:13;1.50;;;0.60;;
16824;SDS011;8529;48.108;-1.706;2022-07-01T12:18:50;1.60;;;0.50;;
16824;SDS011;8529;48.108;-1.706;2022-07-01T12:21:21;1.23;;;0.77;;
16824;SDS011;8529;48.108;-1.706;2022-07-01T12:24:02;3.30;;;0.80;;
16824;SDS011;8529;48.108;-1.706;2022-07-01T12:26:34;2.15;;;0.57;;
16824;SDS011;8529;48.108;-1.706;2022-07-01T12:29:12;2.05;;;0.77;;
16824;SDS011;8529;48.108;-1.706;2022-07-01T12:31:40;1.98;;;0.65;;
16824;SDS011;8529;48.108;-1.706;2022-07-01T12:34:07;1.20;;;0.50;;
16824;SDS011;8529;48.108;-1.706;2022-07-01T12:36:34;2.13;;;0.68;;
16824;SDS011;8529;48.108;-1.706;2022-07-01T12:39:02;2.85;;;0.60;;
16824;SDS011;8529;48.108;-1.706;2022-07-01T12:41:30;0.50;;;0.50;;
16824;SDS011;8529;48.108;-1.706;2022-07-01T12:44:00;1.35;;;0.65;;
16824;SDS011;8529;48.108;-1.706;2022-07-01T12:46:31;2.20;;;0.45;;
16824;SDS011;8529;48.108;-1.706;2022-07-01T12:48:58;0.77;;;0.60;;
16824;SDS011;8529;48.108;-1.706;2022-07-01T12:51:29;2.95;;;0.68;;
16824;SDS011;8529;48.108;-1.706;2022-07-01T12:53:57;0.50;;;0.40;;
16824;SDS011;8529;48.108;-1.706;2022-07-01T12:56:26;2.80;;;0.75;;
16824;SDS011;8529;48.108;-1.706;2022-07-01T12:58:54;0.70;;;0.52;;
16824;SDS011;8529;48.108;-1.706;2022-07-01T13:01:23;1.67;;;0.70;;
16824;SDS011;8529;48.108;-1.706;2022-07-01T13:03:50;1.10;;;0.70;;
16824;SDS011;8529;48.108;-1.706;2022-07-01T13:06:17;1.58;;;0.50;;
16824;SDS011;8529;48.108;-1.706;2022-07-01T13:08:43;0.93;;;0.52;;
16824;SDS011;8529;48.108;-1.706;2022-07-01T13:11:10;1.63;;;0.50;;
16824;SDS011;8529;48.108;-1.706;2022-07-01T13:13:37;1.20;;;0.50;;
16824;SDS011;8529;48.108;-1.706;2022-07-01T13:16:05;0.65;;;0.60;;
16824;SDS011;8529;48.108;-1.706;2022-07-01T13:18:33;1.20;;;0.40;;
16824;SDS011;8529;48.108;-1.706;2022-07-01T13:21:00;1.80;;;0.50;;
16824;SDS011;8529;48.108;-1.706;2022-07-01T13:23:27;3.20;;;0.77;;
16824;SDS011;8529;48.108;-1.706;2022-07-01T13:25:54;1.77;;;0.60;;
16824;SDS011;8529;48.108;-1.706;2022-07-01T13:28:20;0.90;;;0.55;;
16824;SDS011;8529;48.108;-1.706;2022-07-01T13:30:47;3.25;;;0.50;;
16824;SDS011;8529;48.108;-1.706;2022-07-01T13:33:14;0.40;;;0.38;;
16824;SDS011;8529;48.108;-1.706;2022-07-01T13:35:43;1.90;;;0.60;;
16824;SDS011;8529;48.108;-1.706;2022-07-01T13:38:09;0.45;;;0.40;;
16824;SDS011;8529;48.108;-1.706;2022-07-01T13:40:36;2.40;;;0.50;;
16824;SDS011;8529;48.108;-1.706;2022-07-01T13:43:05;0.60;;;0.45;;
16824;SDS011;8529;48.108;-1.706;2022-07-01T13:45:31;0.30;;;0.30;;
16824;SDS011;8529;48.108;-1.706;2022-07-01T13:47:59;2.65;;;0.50;;
16824;SDS011;8529;48.108;-1.706;2022-07-01T13:50:26;0.85;;;0.60;;
16824;SDS011;8529;48.108;-1.706;2022-07-01T13:52:54;1.23;;;0.38;;
16824;SDS011;8529;48.108;-1.706;2022-07-01T13:55:21;1.20;;;0.40;;
16824;SDS011;8529;48.108;-1.706;2022-07-01T13:57:48;1.98;;;0.40;;
16824;SDS011;8529;48.108;-1.706;2022-07-01T14:00:15;1.00;;;0.50;;
16824;SDS011;8529;48.108;-1.706;2022-07-01T14:02:43;0.43;;;0.43;;
16824;SDS011;8529;48.108;-1.706;2022-07-01T14:05:10;0.93;;;0.45;;
16824;SDS011;8529;48.108;-1.706;2022-07-01T14:07:38;1.13;;;0.65;;
16824;SDS011;8529;48.108;-1.706;2022-07-01T14:10:07;1.63;;;0.63;;
16824;SDS011;8529;48.108;-1.706;2022-07-01T14:12:34;1.65;;;0.60;;
16824;SDS011;8529;48.108;-1.706;2022-07-01T14:15:02;2.55;;;0.80;;
16824;SDS011;8529;48.108;-1.706;2022-07-01T14:17:29;1.35;;;0.60;;
16824;SDS011;8529;48.108;-1.706;2022-07-01T14:19:56;1.48;;;0.50;;
16824;SDS011;8529;48.108;-1.706;2022-07-01T14:22:23;1.10;;;0.65;;
16824;SDS011;8529;48.108;-1.706;2022-07-01T14:24:51;0.47;;;0.32;;
16824;SDS011;8529;48.108;-1.706;2022-07-01T14:27:19;2.13;;;0.70;;
16824;SDS011;8529;48.108;-1.706;2022-07-01T14:29:46;2.83;;;0.82;;
16824;SDS011;8529;48.108;-1.706;2022-07-01T14:32:13;1.48;;;0.60;;
16824;SDS011;8529;48.108;-1.706;2022-07-01T14:34:40;0.63;;;0.60;;
16824;SDS011;8529;48.108;-1.706;2022-07-01T14:37:07;1.02;;;0.60;;
16824;SDS011;8529;48.108;-1.706;2022-07-01T14:39:34;1.33;;;0.60;;
16824;SDS011;8529;48.108;-1.706;2022-07-01T14:42:00;2.00;;;0.93;;
16824;SDS011;8529;48.108;-1.706;2022-07-01T14:44:29;1.42;;;0.60;;
16824;SDS011;8529;48.108;-1.706;2022-07-01T14:46:56;1.52;;;0.70;;
16824;SDS011;8529;48.108;-1.706;2022-07-01T14:49:23;1.33;;;0.70;;
16824;SDS011;8529;48.108;-1.706;2022-07-01T14:51:50;1.75;;;0.57;;
16824;SDS011;8529;48.108;-1.706;2022-07-01T14:54:18;2.72;;;0.50;;
16824;SDS011;8529;48.108;-1.706;2022-07-01T14:56:45;0.57;;;0.50;;
16824;SDS011;8529;48.108;-1.706;2022-07-01T14:59:12;1.45;;;0.50;;
16824;SDS011;8529;48.108;-1.706;2022-07-01T15:01:41;0.40;;;0.40;;
16824;SDS011;8529;48.108;-1.706;2022-07-01T15:04:08;0.40;;;0.30;;
16824;SDS011;8529;48.108;-1.706;2022-07-01T15:06:35;0.80;;;0.52;;